Time;durP1;ratioP1;P1;durP2;ratioP2;P2;SDS_P1;SDS_P2;PMS_P1;PMS_P2;Temp;Humidity;BMP_temperature;BMP_pressure;BME280_temperature;BME280_humidity;BME280_pressure;Samples;Min_cycle;Max_cycle;Signal;HPM_P1;HPM_P2
2022/03/18 00:02:21;;;;;;;;;;;7.70;99.90;;;;;;5145399;27;19919;-70
2022/03/18 00:04:48;;;;;;;;;;;7.70;99.90;;;;;;5145384;27;19919;-70
2022/03/18 00:07:14;;;;;;;;;;;7.70;99.90;;;;;;5145114;27;19928;-70
2022/03/18 00:09:41;;;;;;;;;;;7.70;99.90;;;;;;5145623;27;19919;-70
2022/03/18 00:12:08;;;;;;;;;;;7.60;99.90;;;;;;5143314;27;19926;-70
2022/03/18 00:14:39;;;;;;;;;;;7.60;99.90;;;;;;5145419;27;19920;-70
2022/03/18 00:17:05;;;;;;;;;;;7.60;99.90;;;;;;5143825;27;20257;-70
2022/03/18 00:19:33;;;;;;;;;;;7.60;99.90;;;;;;5145188;27;19920;-70
2022/03/18 00:22:01;;;;;;;;;;;7.60;99.90;;;;;;5145240;27;19919;-70
2022/03/18 00:24:28;;;;;;;;;;;7.60;99.90;;;;;;5144939;27;20214;-70
2022/03/18 00:26:54;;;;;;;;;;;7.60;99.90;;;;;;5144527;27;19919;-70
2022/03/18 00:29:21;;;;;;;;;;;7.50;99.90;;;;;;5145477;27;19939;-70
2022/03/18 00:31:49;;;;;;;;;;;7.60;99.90;;;;;;5144566;27;20233;-70
2022/03/18 00:34:15;;;;;;;;;;;7.60;99.90;;;;;;5145184;27;19934;-71
2022/03/18 00:36:42;;;;;;;;;;;7.60;99.90;;;;;;5144711;27;19919;-70
2022/03/18 00:39:08;;;;;;;;;;;7.50;99.90;;;;;;5144835;27;20114;-70
2022/03/18 00:41:35;;;;;;;;;;;7.50;99.90;;;;;;5145380;27;20221;-70
2022/03/18 00:44:02;;;;;;;;;;;7.50;99.90;;;;;;5144654;27;19927;-70
2022/03/18 00:46:28;;;;;;;;;;;7.50;99.90;;;;;;5144146;27;19926;-70
2022/03/18 00:54:25;;;;;;;;;;;7.40;99.90;;;;;;5144728;27;19923;-70
2022/03/18 00:56:51;;;;;;;;;;;7.40;99.90;;;;;;5143848;27;20255;-70
2022/03/18 00:59:18;;;;;;;;;;;7.40;99.90;;;;;;5144492;27;20157;-70
2022/03/18 01:01:45;;;;;;;;;;;7.40;99.90;;;;;;5144419;27;19987;-70
2022/03/18 01:04:13;;;;;;;;;;;7.40;99.90;;;;;;5144144;27;19925;-70
2022/03/18 01:06:39;;;;;;;;;;;7.40;99.90;;;;;;5141195;27;20207;-70
2022/03/18 01:09:06;;;;;;;;;;;7.30;99.90;;;;;;5143979;27;19926;-70
2022/03/18 01:11:32;;;;;;;;;;;7.40;99.90;;;;;;5144520;27;19919;-71
2022/03/18 01:13:59;;;;;;;;;;;7.40;99.90;;;;;;5143861;27;20003;-70
2022/03/18 01:16:27;;;;;;;;;;;7.40;99.90;;;;;;5141016;27;20175;-70
2022/03/18 01:18:53;;;;;;;;;;;7.40;99.90;;;;;;5122644;22;20215;-71
2022/03/18 01:21:21;;;;;;;;;;;7.70;99.90;;;;;;5071881;28;19921;-71
2022/03/18 01:23:48;;;;;;;;;;;7.40;99.90;;;;;;5079839;28;19921;-71
2022/03/18 01:26:15;;;;;;;;;;;7.30;99.90;;;;;;5082372;28;20015;-71
2022/03/18 01:28:41;;;;;;;;;;;7.40;99.90;;;;;;5085630;28;20219;-71
2022/03/18 01:31:09;;;;;;;;;;;7.30;99.90;;;;;;5079899;28;19920;-71
2022/03/18 01:33:37;;;;;;;;;;;7.30;99.90;;;;;;5075423;28;19920;-71
2022/03/18 01:36:03;;;;;;;;;;;7.30;99.90;;;;;;5082286;28;19920;-71
2022/03/18 01:38:31;;;;;;;;;;;7.30;99.90;;;;;;5082856;28;19921;-71
2022/03/18 01:40:58;;;;;;;;;;;7.30;99.90;;;;;;5081093;28;19929;-71
2022/03/18 01:43:25;;;;;;;;;;;7.20;99.90;;;;;;5084603;28;20118;-71
2022/03/18 01:45:51;;;;;;;;;;;7.20;99.90;;;;;;5086280;28;19927;-71
2022/03/18 01:48:19;;;;;;;;;;;7.20;99.90;;;;;;5084681;28;19928;-71
2022/03/18 01:50:46;;;;;;;;;;;7.20;99.90;;;;;;5086985;28;19920;-71
2022/03/18 01:53:13;;;;;;;;;;;7.30;99.90;;;;;;5086182;28;19983;-71
2022/03/18 01:55:41;;;;;;;;;;;7.20;99.90;;;;;;5085941;28;19935;-71
2022/03/18 01:58:07;;;;;;;;;;;7.20;99.90;;;;;;5085975;28;19928;-71
2022/03/18 02:00:42;;;;;;;;;;;7.20;99.90;;;;;;5086801;28;19921;-71
2022/03/18 02:03:09;;;;;;;;;;;7.20;99.90;;;;;;5085943;28;19925;-71
2022/03/18 02:05:44;;;;;;;;;;;7.40;99.90;;;;;;5085943;28;19927;-71
2022/03/18 02:08:11;;;;;;;;;;;7.10;99.90;;;;;;5086691;28;19924;-71
2022/03/18 02:10:38;;;;;;;;;;;7.10;99.90;;;;;;5086748;28;19930;-71
2022/03/18 02:13:06;;;;;;;;;;;7.10;99.90;;;;;;5086572;28;19956;-71
2022/03/18 02:15:32;;;;;;;;;;;7.10;99.90;;;;;;5085614;28;20150;-71
2022/03/18 02:17:59;;;;;;;;;;;7.10;99.90;;;;;;5088666;28;19921;-71
2022/03/18 02:20:26;;;;;;;;;;;7.00;99.90;;;;;;5104689;28;19927;-71
2022/03/18 02:22:54;;;;;;;;;;;7.10;99.90;;;;;;5106774;28;19926;-71
2022/03/18 02:25:20;;;;;;;;;;;7.10;99.90;;;;;;5106025;28;20208;-71
2022/03/18 02:27:54;;;;;;;;;;;7.00;99.90;;;;;;5106788;28;19920;-71
2022/03/18 02:30:22;;;;;;;;;;;7.00;99.90;;;;;;5103830;28;19920;-71
2022/03/18 02:32:49;;;;;;;;;;;7.00;99.90;;;;;;5106088;28;19951;-71
2022/03/18 02:35:15;;;;;;;;;;;7.00;99.90;;;;;;5105995;28;19920;-71
2022/03/18 02:37:42;;;;;;;;;;;7.00;99.90;;;;;;5106666;28;20013;-71
2022/03/18 02:40:10;;;;;;;;;;;6.80;99.90;;;;;;5106729;28;19920;-71
2022/03/18 02:42:37;;;;;;;;;;;6.80;99.90;;;;;;5104209;28;19966;-71
2022/03/18 02:45:04;;;;;;;;;;;6.80;99.90;;;;;;5106084;28;19926;-71
2022/03/18 02:47:30;;;;;;;;;;;6.90;99.90;;;;;;5105621;28;19928;-71
2022/03/18 02:49:59;;;;;;;;;;;6.80;99.90;;;;;;5106430;28;19927;-70
2022/03/18 02:52:26;;;;;;;;;;;6.90;99.90;;;;;;5108670;28;19981;-71
2022/03/18 02:54:53;;;;;;;;;;;6.90;99.90;;;;;;5106196;28;19926;-71
2022/03/18 02:57:21;;;;;;;;;;;6.90;99.90;;;;;;5105499;28;19935;-71
2022/03/18 02:59:52;;;;;;;;;;;6.90;99.90;;;;;;5105452;28;19924;-71
2022/03/18 03:02:25;;;;;;;;;;;6.90;99.90;;;;;;5104379;28;19927;-71
2022/03/18 03:07:59;;;;;;;;;;;6.90;99.90;;;;;;5082851;28;19920;-71
2022/03/18 03:10:26;;;;;;;;;;;6.90;99.90;;;;;;5105600;28;19927;-71
2022/03/18 03:12:54;;;;;;;;;;;6.90;99.90;;;;;;5105487;28;19920;-71
2022/03/18 03:15:21;;;;;;;;;;;6.90;99.90;;;;;;5103033;28;19928;-71
2022/03/18 03:17:47;;;;;;;;;;;6.90;99.90;;;;;;5105474;28;19920;-71
2022/03/18 03:20:15;;;;;;;;;;;6.80;99.90;;;;;;5105473;28;19927;-71
2022/03/18 03:22:41;;;;;;;;;;;6.90;99.90;;;;;;5105260;28;19920;-71
2022/03/18 03:25:08;;;;;;;;;;;6.90;99.90;;;;;;5105183;28;19932;-71
2022/03/18 03:27:34;;;;;;;;;;;6.80;99.90;;;;;;5105112;28;19974;-71
2022/03/18 03:30:04;;;;;;;;;;;6.80;99.90;;;;;;5105385;28;19927;-71
2022/03/18 03:32:31;;;;;;;;;;;6.80;99.90;;;;;;5105134;28;19920;-71
2022/03/18 03:34:58;;;;;;;;;;;6.80;99.90;;;;;;5105116;28;19920;-71
2022/03/18 03:37:24;;;;;;;;;;;6.80;99.90;;;;;;5104358;28;20146;-71
2022/03/18 03:39:51;;;;;;;;;;;6.80;99.90;;;;;;5105486;28;19920;-71
2022/03/18 03:42:18;;;;;;;;;;;6.80;99.90;;;;;;5105093;28;19920;-71
2022/03/18 03:44:45;;;;;;;;;;;6.80;99.90;;;;;;5105456;28;19926;-71
2022/03/18 03:47:13;;;;;;;;;;;6.80;99.90;;;;;;5104635;28;19928;-71
2022/03/18 03:49:40;;;;;;;;;;;6.80;99.90;;;;;;5104659;28;19920;-71
2022/03/18 03:52:08;;;;;;;;;;;6.70;99.90;;;;;;5104983;28;19920;-71
2022/03/18 03:54:34;;;;;;;;;;;6.80;99.90;;;;;;5104997;28;20262;-71
2022/03/18 03:57:01;;;;;;;;;;;6.80;99.90;;;;;;5104311;28;19936;-71
2022/03/18 03:59:28;;;;;;;;;;;6.80;99.90;;;;;;5104611;28;19920;-71
2022/03/18 04:01:54;;;;;;;;;;;6.80;99.90;;;;;;5104829;28;19927;-71
2022/03/18 04:04:22;;;;;;;;;;;6.80;99.90;;;;;;5104606;28;19947;-71
2022/03/18 04:06:49;;;;;;;;;;;6.80;99.90;;;;;;5103611;28;19920;-71
2022/03/18 04:09:16;;;;;;;;;;;6.80;99.90;;;;;;5104934;28;19920;-71
2022/03/18 04:11:42;;;;;;;;;;;6.80;99.90;;;;;;5104777;28;19954;-71
2022/03/18 04:14:09;;;;;;;;;;;6.70;99.90;;;;;;5105008;28;19920;-71
2022/03/18 04:16:36;;;;;;;;;;;6.70;99.90;;;;;;5104095;28;19919;-71
2022/03/18 04:19:03;;;;;;;;;;;6.70;99.90;;;;;;5104607;28;20154;-71
2022/03/18 04:21:31;;;;;;;;;;;6.70;99.90;;;;;;5104620;28;19994;-71
2022/03/18 04:23:58;;;;;;;;;;;6.70;99.90;;;;;;5104184;28;19920;-71
2022/03/18 04:26:24;;;;;;;;;;;6.60;99.90;;;;;;5103407;28;19927;-71
2022/03/18 04:28:51;;;;;;;;;;;6.60;99.90;;;;;;5104029;28;20123;-71
2022/03/18 04:31:17;;;;;;;;;;;6.70;99.90;;;;;;5104838;28;19920;-71
2022/03/18 04:33:44;;;;;;;;;;;6.60;99.90;;;;;;5104194;28;19932;-71
2022/03/18 04:36:10;;;;;;;;;;;6.60;99.90;;;;;;5103882;28;19928;-71
2022/03/18 04:38:38;;;;;;;;;;;6.70;99.90;;;;;;5104090;28;19934;-71
2022/03/18 04:41:05;;;;;;;;;;;6.60;99.90;;;;;;5103119;28;19983;-71
2022/03/18 04:43:32;;;;;;;;;;;6.60;99.90;;;;;;5104158;28;19924;-71
2022/03/18 04:45:59;;;;;;;;;;;6.60;99.90;;;;;;5103283;28;19920;-71
2022/03/18 04:48:25;;;;;;;;;;;6.60;99.90;;;;;;5103437;28;19927;-71
2022/03/18 04:50:52;;;;;;;;;;;6.60;99.90;;;;;;5104047;28;20146;-71
2022/03/18 04:53:18;;;;;;;;;;;6.60;99.90;;;;;;5103769;28;19938;-71
2022/03/18 04:55:46;;;;;;;;;;;6.60;99.90;;;;;;5102742;28;20215;-72
2022/03/18 04:58:13;;;;;;;;;;;6.60;99.90;;;;;;5103210;28;19944;-73
2022/03/18 05:00:39;;;;;;;;;;;6.60;99.90;;;;;;5103364;28;19920;-71
2022/03/18 05:03:06;;;;;;;;;;;6.60;99.90;;;;;;5103533;28;19920;-71
2022/03/18 05:05:32;;;;;;;;;;;6.60;99.90;;;;;;5102893;28;19977;-72
2022/03/18 05:07:59;;;;;;;;;;;6.60;99.90;;;;;;5103404;28;19924;-72
2022/03/18 05:10:26;;;;;;;;;;;6.60;99.90;;;;;;5103528;28;20226;-71
2022/03/18 05:12:54;;;;;;;;;;;6.60;99.90;;;;;;5103749;28;20110;-71
2022/03/18 05:15:20;;;;;;;;;;;6.50;99.90;;;;;;5102681;28;19924;-71
2022/03/18 05:17:49;;;;;;;;;;;6.60;99.90;;;;;;5102059;28;19920;-71
2022/03/18 05:20:16;;;;;;;;;;;6.50;99.90;;;;;;5103547;28;19920;-71
2022/03/18 05:22:43;;;;;;;;;;;6.50;99.90;;;;;;5103382;28;19927;-71
2022/03/18 05:25:10;;;;;;;;;;;6.50;99.90;;;;;;5102964;28;19942;-71
2022/03/18 05:27:38;;;;;;;;;;;6.50;99.90;;;;;;5102772;28;19927;-71
2022/03/18 05:30:07;;;;;;;;;;;6.50;99.90;;;;;;5103317;28;19928;-71
2022/03/18 05:32:34;;;;;;;;;;;6.50;99.90;;;;;;5103592;28;19927;-71
2022/03/18 05:35:00;;;;;;;;;;;6.40;99.90;;;;;;5103342;28;20110;-71
2022/03/18 05:37:27;;;;;;;;;;;6.40;99.90;;;;;;5102759;28;19920;-71
2022/03/18 05:39:53;;;;;;;;;;;6.40;99.90;;;;;;5103199;28;19920;-71
2022/03/18 05:42:20;;;;;;;;;;;6.40;99.90;;;;;;5103750;28;19920;-71
2022/03/18 05:44:46;;;;;;;;;;;6.40;99.90;;;;;;5102823;28;19956;-71
2022/03/18 05:47:14;;;;;;;;;;;6.40;99.90;;;;;;5103161;28;20242;-71
2022/03/18 05:49:41;;;;;;;;;;;6.40;99.90;;;;;;5102775;28;19929;-71
2022/03/18 05:52:08;;;;;;;;;;;6.40;99.90;;;;;;5097516;28;19926;-71
2022/03/18 05:54:34;;;;;;;;;;;6.40;99.90;;;;;;5099263;28;19927;-71
2022/03/18 05:57:00;;;;;;;;;;;6.40;99.90;;;;;;5098663;28;20237;-71
2022/03/18 05:59:27;;;;;;;;;;;6.40;99.90;;;;;;5099367;28;19959;-71
2022/03/18 06:01:55;;;;;;;;;;;6.40;99.90;;;;;;5099904;28;19920;-71
2022/03/18 06:04:24;;;;;;;;;;;6.40;99.90;;;;;;5103219;28;19927;-71
2022/03/18 06:06:50;;;;;;;;;;;6.40;99.90;;;;;;5102585;28;19928;-71
2022/03/18 06:12:01;;;;;;;;;;;6.40;99.90;;;;;;5103453;28;20111;-71
2022/03/18 06:14:29;;;;;;;;;;;6.40;99.90;;;;;;5103119;28;19947;-71
2022/03/18 06:16:56;;;;;;;;;;;6.60;99.90;;;;;;5102604;28;19920;-71
2022/03/18 06:19:25;;;;;;;;;;;6.40;99.90;;;;;;5102545;28;19920;-71
2022/03/18 06:21:52;;;;;;;;;;;6.40;99.90;;;;;;5102808;28;20249;-70
2022/03/18 06:24:19;;;;;;;;;;;6.30;99.90;;;;;;5102787;28;20232;-70
2022/03/18 06:26:45;;;;;;;;;;;6.20;99.90;;;;;;5102416;28;20207;-70
2022/03/18 06:29:12;;;;;;;;;;;6.20;99.90;;;;;;5104223;28;19920;-70
2022/03/18 06:31:39;;;;;;;;;;;6.20;99.90;;;;;;5106605;28;19920;-70
2022/03/18 06:34:06;;;;;;;;;;;6.20;99.90;;;;;;5107007;28;19920;-70
2022/03/18 06:36:34;;;;;;;;;;;6.20;99.90;;;;;;5105980;28;19920;-70
2022/03/18 06:39:01;;;;;;;;;;;6.20;99.90;;;;;;5107283;28;19920;-71
2022/03/18 06:41:27;;;;;;;;;;;6.20;99.90;;;;;;5107051;28;19920;-70
2022/03/18 06:43:54;;;;;;;;;;;6.20;99.90;;;;;;5107166;28;19928;-70
2022/03/18 06:46:21;;;;;;;;;;;6.10;99.90;;;;;;5106267;28;19920;-70
2022/03/18 06:48:47;;;;;;;;;;;6.20;99.90;;;;;;5104174;28;19924;-70
2022/03/18 06:51:14;;;;;;;;;;;6.20;99.90;;;;;;5105454;28;19935;-71
2022/03/18 06:53:42;;;;;;;;;;;6.20;99.90;;;;;;5106650;28;19920;-71
2022/03/18 06:56:08;;;;;;;;;;;6.20;99.90;;;;;;5106104;28;19928;-69
2022/03/18 06:58:35;;;;;;;;;;;6.20;99.90;;;;;;5106624;28;20135;-71
2022/03/18 07:01:02;;;;;;;;;;;6.20;99.90;;;;;;5106700;28;19927;-70
2022/03/18 07:03:29;;;;;;;;;;;6.20;99.90;;;;;;5106392;28;19920;-71
2022/03/18 07:05:55;;;;;;;;;;;6.30;99.90;;;;;;5105506;28;20118;-71
2022/03/18 07:08:22;;;;;;;;;;;6.20;99.90;;;;;;5106661;28;19920;-71
2022/03/18 07:10:50;;;;;;;;;;;6.20;99.90;;;;;;5106551;28;19920;-71
2022/03/18 07:13:16;;;;;;;;;;;6.20;99.90;;;;;;5106262;28;19920;-71
2022/03/18 07:15:43;;;;;;;;;;;6.20;99.90;;;;;;5105642;28;19926;-71
2022/03/18 07:18:09;;;;;;;;;;;6.20;99.90;;;;;;5101646;28;20135;-71
2022/03/18 07:20:37;;;;;;;;;;;6.20;99.90;;;;;;5098440;28;19916;-72
2022/03/18 07:23:07;;;;;;;;;;;6.20;99.90;;;;;;5100762;28;22131;-71
2022/03/18 07:25:34;;;;;;;;;;;6.30;99.90;;;;;;5104551;28;19966;-72
2022/03/18 07:28:04;;;;;;;;;;;6.20;99.90;;;;;;5102290;28;19950;-71
2022/03/18 07:30:31;;;;;;;;;;;6.20;99.90;;;;;;5106258;28;19920;-71
2022/03/18 07:32:58;;;;;;;;;;;6.20;99.90;;;;;;5107684;28;19920;-71
2022/03/18 07:35:26;;;;;;;;;;;6.20;99.90;;;;;;5094517;28;19920;-71
2022/03/18 07:37:53;;;;;;;;;;;6.20;99.90;;;;;;5106058;28;19931;-71
2022/03/18 07:40:21;;;;;;;;;;;6.20;99.90;;;;;;5104362;28;19924;-71
2022/03/18 07:42:50;;;;;;;;;;;6.30;99.90;;;;;;5092844;28;19966;-71
2022/03/18 07:45:22;;;;;;;;;;;6.30;99.90;;;;;;5094901;28;19987;-71
2022/03/18 07:47:50;;;;;;;;;;;6.40;99.90;;;;;;5099102;28;20111;-71
2022/03/18 07:50:20;;;;;;;;;;;6.40;99.90;;;;;;5096698;28;19939;-71
2022/03/18 07:52:48;;;;;;;;;;;6.50;99.90;;;;;;5105263;28;19958;-72
2022/03/18 07:55:15;;;;;;;;;;;6.60;99.90;;;;;;5101962;28;19920;-72
2022/03/18 07:57:42;;;;;;;;;;;6.60;99.90;;;;;;5104516;28;19920;-71
2022/03/18 08:00:09;;;;;;;;;;;6.50;99.90;;;;;;5094255;28;19920;-72
2022/03/18 08:02:37;;;;;;;;;;;6.50;99.90;;;;;;5104934;28;19920;-72
2022/03/18 08:05:04;;;;;;;;;;;6.60;99.90;;;;;;5102339;28;19920;-72
2022/03/18 08:07:30;;;;;;;;;;;6.60;99.90;;;;;;5104284;28;19924;-71
2022/03/18 08:09:57;;;;;;;;;;;6.60;99.90;;;;;;5094701;28;20200;-72
2022/03/18 08:12:24;;;;;;;;;;;6.60;99.90;;;;;;5101501;28;19924;-72
2022/03/18 08:14:50;;;;;;;;;;;6.60;99.90;;;;;;5104706;28;19927;-72
2022/03/18 08:17:17;;;;;;;;;;;6.60;99.90;;;;;;5104131;28;19920;-72
2022/03/18 08:19:45;;;;;;;;;;;6.70;99.90;;;;;;5103930;28;19926;-71
2022/03/18 08:22:11;;;;;;;;;;;6.70;99.90;;;;;;5086458;28;20115;-71
2022/03/18 08:24:38;;;;;;;;;;;6.70;99.90;;;;;;5104159;28;19928;-71
2022/03/18 08:27:06;;;;;;;;;;;6.70;99.90;;;;;;5103516;28;19928;-71
2022/03/18 08:29:32;;;;;;;;;;;6.70;99.90;;;;;;5103971;28;19920;-71
2022/03/18 08:31:59;;;;;;;;;;;6.70;99.90;;;;;;5101475;28;19920;-72
2022/03/18 08:34:25;;;;;;;;;;;6.70;99.90;;;;;;5103895;28;19920;-72
2022/03/18 08:36:53;;;;;;;;;;;6.70;99.90;;;;;;5103291;28;19920;-71
2022/03/18 08:39:20;;;;;;;;;;;6.60;99.90;;;;;;5103168;28;19979;-71
2022/03/18 08:41:46;;;;;;;;;;;6.70;99.90;;;;;;5097955;28;20215;-72
2022/03/18 08:44:14;;;;;;;;;;;6.70;99.90;;;;;;5102785;28;20119;-71
2022/03/18 08:46:40;;;;;;;;;;;6.70;99.90;;;;;;5103004;28;19920;-71
2022/03/18 08:49:07;;;;;;;;;;;6.60;99.90;;;;;;5097779;28;19920;-71
2022/03/18 08:51:33;;;;;;;;;;;6.70;99.90;;;;;;5101432;28;19983;-72
2022/03/18 08:54:02;;;;;;;;;;;6.70;99.90;;;;;;5098439;28;19921;-72
2022/03/18 08:56:29;;;;;;;;;;;6.80;99.90;;;;;;5102425;28;19942;-71
2022/03/18 08:58:55;;;;;;;;;;;6.80;99.90;;;;;;5094891;28;20123;-72
2022/03/18 09:01:22;;;;;;;;;;;6.90;99.90;;;;;;5103072;28;19926;-72
2022/03/18 09:03:49;;;;;;;;;;;6.90;99.90;;;;;;5102431;28;19920;-73
2022/03/18 09:06:15;;;;;;;;;;;7.00;99.90;;;;;;5103476;28;19927;-71
2022/03/18 09:08:42;;;;;;;;;;;7.10;99.90;;;;;;5103588;28;19924;-71
2022/03/18 09:11:10;;;;;;;;;;;7.10;99.90;;;;;;5103645;28;19932;-71
2022/03/18 09:13:37;;;;;;;;;;;7.10;99.90;;;;;;5103585;28;19927;-71
2022/03/18 09:16:04;;;;;;;;;;;7.10;99.90;;;;;;5101867;28;19927;-71
2022/03/18 09:18:31;;;;;;;;;;;7.10;99.90;;;;;;5102935;28;19920;-71
2022/03/18 09:20:57;;;;;;;;;;;7.00;99.90;;;;;;5099655;28;19924;-71
2022/03/18 09:23:24;;;;;;;;;;;7.10;99.90;;;;;;5102004;28;20329;-71
2022/03/18 09:25:51;;;;;;;;;;;7.10;99.90;;;;;;5102502;28;19920;-71
2022/03/18 09:28:18;;;;;;;;;;;7.20;99.90;;;;;;5103187;28;20142;-71
2022/03/18 09:30:45;;;;;;;;;;;7.20;99.90;;;;;;5101942;28;19920;-70
2022/03/18 09:33:12;;;;;;;;;;;7.10;99.90;;;;;;5101082;28;19966;-71
2022/03/18 09:35:39;;;;;;;;;;;7.20;99.90;;;;;;5096469;28;20224;-71
2022/03/18 09:38:06;;;;;;;;;;;7.20;99.90;;;;;;5097528;28;20089;-71
2022/03/18 09:40:32;;;;;;;;;;;7.30;99.90;;;;;;5097906;28;19927;-71
2022/03/18 09:42:59;;;;;;;;;;;7.40;99.90;;;;;;5098353;28;19986;-70
2022/03/18 09:45:30;;;;;;;;;;;7.40;99.90;;;;;;5094960;28;20215;-70
2022/03/18 09:47:57;;;;;;;;;;;7.50;99.90;;;;;;5100293;28;19928;-71
2022/03/18 09:50:25;;;;;;;;;;;7.60;99.90;;;;;;5091321;28;19926;-70
2022/03/18 09:52:51;;;;;;;;;;;7.60;99.90;;;;;;5102165;28;19927;-70
2022/03/18 09:55:18;;;;;;;;;;;7.70;99.90;;;;;;5095175;28;19920;-70
2022/03/18 09:57:45;;;;;;;;;;;7.80;99.90;;;;;;5103512;28;19920;-70
2022/03/18 10:00:12;;;;;;;;;;;7.80;99.90;;;;;;5100639;28;19920;-70
2022/03/18 10:02:40;;;;;;;;;;;7.80;99.90;;;;;;5103664;28;19920;-70
2022/03/18 10:05:10;;;;;;;;;;;7.80;99.90;;;;;;5106339;28;19920;-70
2022/03/18 10:07:37;;;;;;;;;;;7.80;99.90;;;;;;5099898;28;19928;-69
2022/03/18 10:10:05;;;;;;;;;;;7.90;99.90;;;;;;5107647;28;19920;-70
2022/03/18 10:12:32;;;;;;;;;;;7.90;99.90;;;;;;5100544;28;20211;-70
2022/03/18 10:15:20;;;;;;;;;;;8.00;99.90;;;;;;5106718;28;19920;-70
2022/03/18 10:17:49;;;;;;;;;;;8.00;99.90;;;;;;5089362;28;19927;-70
2022/03/18 10:20:30;;;;;;;;;;;8.00;99.90;;;;;;5107216;28;20210;-70
2022/03/18 10:22:59;;;;;;;;;;;8.10;99.90;;;;;;5090095;28;19927;-71
2022/03/18 10:25:42;;;;;;;;;;;8.30;99.90;;;;;;5099924;28;19927;-70
2022/03/18 10:28:09;;;;;;;;;;;8.30;99.90;;;;;;5103321;28;19920;-70
2022/03/18 10:30:36;;;;;;;;;;;8.40;99.90;;;;;;5103016;28;19927;-70
2022/03/18 10:33:05;;;;;;;;;;;8.40;99.90;;;;;;5103068;28;19920;-70
2022/03/18 10:38:26;;;;;;;;;;;8.40;99.90;;;;;;5105107;28;19924;-71
2022/03/18 10:40:53;;;;;;;;;;;8.40;99.90;;;;;;5105231;28;19927;-70
2022/03/18 10:43:20;;;;;;;;;;;8.40;99.90;;;;;;5106067;28;19920;-71
2022/03/18 10:45:59;;;;;;;;;;;8.40;99.90;;;;;;5105986;28;20183;-70
2022/03/18 10:48:27;;;;;;;;;;;8.40;99.90;;;;;;5098849;28;20259;-70
2022/03/18 10:51:01;;;;;;;;;;;8.50;99.90;;;;;;5099397;28;19928;-70
2022/03/18 10:53:30;;;;;;;;;;;8.60;99.90;;;;;;5089402;28;19920;-70
2022/03/18 10:55:59;;;;;;;;;;;8.60;99.90;;;;;;5104558;28;19920;-70
2022/03/18 10:58:29;;;;;;;;;;;8.60;99.90;;;;;;5102359;28;19920;-70
2022/03/18 11:00:58;;;;;;;;;;;8.70;99.90;;;;;;5096169;28;19920;-69
2022/03/18 11:03:24;;;;;;;;;;;8.80;99.90;;;;;;5105174;28;20107;-70
2022/03/18 11:05:53;;;;;;;;;;;8.90;99.90;;;;;;5103079;28;19943;-69
2022/03/18 11:08:22;;;;;;;;;;;9.00;99.90;;;;;;5100736;28;20112;-69
2022/03/18 11:11:11;;;;;;;;;;;9.10;99.90;;;;;;5098117;28;20034;-70
2022/03/18 11:13:48;;;;;;;;;;;9.20;99.90;;;;;;5102526;28;19938;-69
2022/03/18 11:16:17;;;;;;;;;;;9.40;99.90;;;;;;5096327;28;19920;-69
2022/03/18 11:18:45;;;;;;;;;;;9.50;99.90;;;;;;5102586;28;20115;-69
2022/03/18 11:21:13;;;;;;;;;;;9.50;99.90;;;;;;5102866;28;19926;-69
2022/03/18 11:23:40;;;;;;;;;;;9.50;99.90;;;;;;5100676;28;20207;-69
2022/03/18 11:26:07;;;;;;;;;;;9.60;99.90;;;;;;5104101;28;19942;-69
2022/03/18 11:28:34;;;;;;;;;;;9.70;99.90;;;;;;5089372;28;19920;-70
2022/03/18 11:31:01;;;;;;;;;;;9.60;99.90;;;;;;5101698;28;19928;-69
2022/03/18 11:33:28;;;;;;;;;;;9.70;99.90;;;;;;5099160;28;19927;-69
2022/03/18 11:36:13;;;;;;;;;;;9.80;99.90;;;;;;5104443;28;19924;-69
2022/03/18 11:38:51;;;;;;;;;;;9.80;99.90;;;;;;5103544;28;19920;-69
2022/03/18 11:41:19;;;;;;;;;;;9.70;99.90;;;;;;5100024;28;19920;-70
2022/03/18 11:43:50;;;;;;;;;;;9.70;99.90;;;;;;5103052;28;20234;-69
2022/03/18 11:46:21;;;;;;;;;;;9.70;99.90;;;;;;5104254;28;19920;-69
2022/03/18 11:48:49;;;;;;;;;;;9.80;99.90;;;;;;5104583;28;19920;-70
2022/03/18 11:51:40;;;;;;;;;;;9.90;99.90;;;;;;5103796;28;19920;-69
2022/03/18 11:54:10;;;;;;;;;;;9.90;99.90;;;;;;5074323;28;19982;-69
2022/03/18 11:56:45;;;;;;;;;;;10.10;99.90;;;;;;5103879;28;19975;-70
2022/03/18 11:59:31;;;;;;;;;;;10.20;99.90;;;;;;5104611;28;19924;-69
2022/03/18 12:02:01;;;;;;;;;;;10.10;99.90;;;;;;5096090;28;20177;-70
2022/03/18 12:04:42;;;;;;;;;;;10.20;99.90;;;;;;5098553;28;19928;-72
2022/03/18 12:07:12;;;;;;;;;;;10.20;99.90;;;;;;5096517;28;20204;-69
2022/03/18 12:09:56;;;;;;;;;;;10.20;99.90;;;;;;5097314;28;19920;-69
2022/03/18 12:12:25;;;;;;;;;;;10.30;99.90;;;;;;5098949;28;19919;-71
2022/03/18 12:14:53;;;;;;;;;;;10.30;99.90;;;;;;5101352;28;19920;-70
2022/03/18 12:17:20;;;;;;;;;;;10.40;99.90;;;;;;5103830;28;20230;-70
2022/03/18 12:19:50;;;;;;;;;;;10.50;99.90;;;;;;5104540;28;20208;-69
2022/03/18 12:22:18;;;;;;;;;;;10.50;99.90;;;;;;5104674;28;19920;-69
2022/03/18 12:24:48;;;;;;;;;;;10.40;99.90;;;;;;5100994;28;19920;-69
2022/03/18 12:27:17;;;;;;;;;;;10.40;99.90;;;;;;5101735;28;19920;-69
2022/03/18 12:29:44;;;;;;;;;;;10.50;99.90;;;;;;5104334;28;19920;-69
2022/03/18 12:32:13;;;;;;;;;;;10.60;99.90;;;;;;5104876;28;20133;-70
2022/03/18 12:34:47;;;;;;;;;;;10.70;99.90;;;;;;5104494;28;19928;-69
2022/03/18 12:37:17;;;;;;;;;;;10.80;99.90;;;;;;5102784;28;19927;-70
2022/03/18 12:39:44;;;;;;;;;;;10.90;99.90;;;;;;5104596;28;19920;-70
2022/03/18 12:42:12;;;;;;;;;;;11.00;99.90;;;;;;5104726;28;19920;-69
2022/03/18 12:44:38;;;;;;;;;;;10.90;99.90;;;;;;5104676;28;19927;-69
2022/03/18 12:47:07;;;;;;;;;;;10.90;99.90;;;;;;5103717;28;19927;-70
2022/03/18 12:49:35;;;;;;;;;;;10.90;99.90;;;;;;5104189;28;19926;-69
2022/03/18 12:52:01;;;;;;;;;;;10.90;99.90;;;;;;5104145;28;20215;-70
2022/03/18 12:54:29;;;;;;;;;;;10.80;99.90;;;;;;5103319;28;19921;-70
2022/03/18 12:56:56;;;;;;;;;;;10.90;99.90;;;;;;5089359;28;19927;-69
2022/03/18 12:59:22;;;;;;;;;;;10.90;99.90;;;;;;5102084;28;19920;-69
2022/03/18 13:01:53;;;;;;;;;;;10.90;99.90;;;;;;5104113;28;19920;-70
2022/03/18 13:04:22;;;;;;;;;;;11.00;99.90;;;;;;5103795;28;19988;-69
2022/03/18 13:06:52;;;;;;;;;;;11.00;99.90;;;;;;5089907;28;19920;-69
2022/03/18 13:09:19;;;;;;;;;;;11.10;99.90;;;;;;5104086;28;19920;-70
2022/03/18 13:11:45;;;;;;;;;;;10.90;99.90;;;;;;5104153;28;19920;-70
2022/03/18 13:14:12;;;;;;;;;;;10.90;99.90;;;;;;5102663;28;19920;-70
2022/03/18 13:16:39;;;;;;;;;;;11.00;99.90;;;;;;5102744;28;19930;-70
2022/03/18 13:19:07;;;;;;;;;;;11.00;99.90;;;;;;5101863;28;20235;-70
2022/03/18 13:21:42;;;;;;;;;;;11.10;99.90;;;;;;5102543;28;19920;-70
2022/03/18 13:24:15;;;;;;;;;;;11.00;99.90;;;;;;5100057;28;19920;-70
2022/03/18 13:26:42;;;;;;;;;;;11.00;99.90;;;;;;5102688;28;19927;-70
2022/03/18 13:29:09;;;;;;;;;;;10.90;99.90;;;;;;5101361;28;20262;-69
2022/03/18 13:34:30;;;;;;;;;;;10.90;99.90;;;;;;5103870;28;19992;-72
2022/03/18 13:37:12;;;;;;;;;;;10.90;99.90;;;;;;5090423;28;20204;-70
2022/03/18 13:39:38;;;;;;;;;;;10.80;99.90;;;;;;5102727;28;19924;-70
2022/03/18 13:42:05;;;;;;;;;;;10.80;99.90;;;;;;5103565;28;19920;-72
2022/03/18 13:44:44;;;;;;;;;;;10.80;99.90;;;;;;5103460;28;19926;-72
2022/03/18 13:47:10;;;;;;;;;;;10.80;99.90;;;;;;5103116;28;19924;-71
2022/03/18 13:49:37;;;;;;;;;;;10.70;99.90;;;;;;5103759;28;19928;-70
2022/03/18 13:52:05;;;;;;;;;;;10.70;99.90;;;;;;5103695;28;19920;-69
2022/03/18 13:54:42;;;;;;;;;;;10.80;99.90;;;;;;5092221;28;19920;-69
2022/03/18 13:57:09;;;;;;;;;;;10.80;99.90;;;;;;5094957;28;19920;-68
2022/03/18 13:59:35;;;;;;;;;;;10.70;99.90;;;;;;5103128;28;19920;-71
2022/03/18 14:02:03;;;;;;;;;;;10.80;99.90;;;;;;5103454;28;19920;-72
2022/03/18 14:04:38;;;;;;;;;;;10.90;99.90;;;;;;5103403;28;19920;-71
2022/03/18 14:07:05;;;;;;;;;;;11.00;99.90;;;;;;5103223;28;20146;-71
2022/03/18 14:09:32;;;;;;;;;;;11.00;99.90;;;;;;5102460;28;19920;-73
2022/03/18 14:12:12;;;;;;;;;;;11.00;99.90;;;;;;5102771;28;19920;-71
2022/03/18 14:14:39;;;;;;;;;;;10.90;99.90;;;;;;5103509;28;20139;-71
2022/03/18 14:17:10;;;;;;;;;;;10.90;99.90;;;;;;5102541;28;19921;-71
2022/03/18 14:19:53;;;;;;;;;;;10.90;99.90;;;;;;5101955;28;20176;-72
2022/03/18 14:22:30;;;;;;;;;;;10.90;99.90;;;;;;5090257;28;20271;-72
2022/03/18 14:24:57;;;;;;;;;;;11.00;99.90;;;;;;5083418;28;19978;-71
2022/03/18 14:27:25;;;;;;;;;;;11.00;99.90;;;;;;5101071;28;20068;-71
2022/03/18 14:29:56;;;;;;;;;;;11.10;99.90;;;;;;5102139;28;19920;-71
2022/03/18 14:32:23;;;;;;;;;;;11.10;99.90;;;;;;5102543;28;19936;-71
2022/03/18 14:34:52;;;;;;;;;;;11.10;99.90;;;;;;5103408;28;19924;-73
2022/03/18 14:37:20;;;;;;;;;;;11.20;99.90;;;;;;5103192;28;19987;-71
2022/03/18 14:39:47;;;;;;;;;;;11.30;99.90;;;;;;5101382;28;19920;-71
2022/03/18 14:42:14;;;;;;;;;;;11.30;99.90;;;;;;5103219;28;20212;-71
2022/03/18 14:44:45;;;;;;;;;;;11.30;99.90;;;;;;5100003;28;20199;-71
2022/03/18 14:47:11;;;;;;;;;;;11.20;99.90;;;;;;5101861;28;19927;-70
2022/03/18 14:49:38;;;;;;;;;;;11.20;99.90;;;;;;5103045;28;19920;-71
2022/03/18 14:52:04;;;;;;;;;;;11.20;99.90;;;;;;5106712;28;19926;-71